Etusivu
METAR-TAF:

METAR-TAF

Lentoasemat :

Elâzığ, Turkki

Leveyspiiri: 38-36N, Pituuspiiri: 039-17E, korkeus merenpinnasta: 902 m

Tämänhetkinen sää

Tämä raportti tehtiin 58 minuuttia sitten, kello 04.50 UTC
Tuuli 4 kn lounaasta
Lämpötila 5°C
Kosteus 100%
Ilmanpaine 1012 hPa
Näkyvyys 10 km tai enemmän
Muutamia pilviä 1800 ft:n korkeudessa
Hajanaisia pilviä 3500 ft:n korkeudessa
Hajonneita pilviä 9000 ft:n korkeudessa

METAR: LTCA 020450Z 22004KT 9999 FEW018 SCT035 BKN090 05/05 Q1012 NOSIG

Aika: 08:48 (05:48 UTC)

Sääennuste

Tämä raportti tehtiin 1 tunti ja 8 minuuttia sitten, kello 04.40 UTC
Ennuste voimassa 02. päivästä klo 06 UTC - 02. päivään klo 15 UTC
Tuuli 2 kn eri suunnista
Näkyvyys 10 km tai enemmän
Hajanaisia pilviä 3500 ft:n korkeudessa
Hajonneita pilviä 10000 ft:n korkeudessa

TAF: LTCA 020440Z 0206/0215 VRB02KT 9999 SCT035 BKN100

Säähavainnot ja -ennusteet yli 4000 lentoasemalta (METAR- ja TAF-raportit).

Käytössä olevat sääasemat on merkitty karttaan keltaisilla ja punaisilla pisteillä.

Aseta hiiri pisteen päälle nähdäksesi sääaseman nimen.

Klikkaa sitten nähdäksesi säähavainnot ja -ennusteet.

Kartan vaihtaminen: klikkaa mustalla rastilla varustettuja vihreitä pisteitä, niin voit zoomata sisään; viivalla varustettua vihreää pistettä, niin voit zoomata ulos tai vihreitä nuolia, niin pääset viereisille kartoille.


METAR-TAF: